Accueil
METAR-TAF:

METAR-TAF

Aéroports :

Monte Scuro, Italie

latitude: 39-20N, longitude: 016-24E, altitude: 1710 m

Observation

Le bulletin a été fait il y a 50 minutes, à 07:55 UTC
Vent 6 kt de est/sud-est
Température 2°C
Humidité 100%
Pression 1007 hPa
Visibilité 10 km ou plus
Nuages fragmentés à une hauteur de 300 ft

METAR: LIBQ 050755Z 12006KT 9999 BKN003 02/02 Q1007 RMK BKN MON S CIME INC ABB SLW VAL NIL VIS MIN 9999

Heure: 09:45 (08:45 UTC)


TAF: absent

Observations et prévisions météorologiques de plus de 4000 aéroports (messages METAR et TAF).

Les stations disponibles sont représentées par des disques jaunes et rouges sur la carte.

Passer la souris dessus pour voir le nom de la station.

Cliquer dessus pour voir les observations et prévisions météorologiques.

Pour changer de carte: cliquez sur les boutons verts avec une croix noire pour zoomer, sur le bouton vert avec un tiret pour effectuer un zoom arrière, ou sur les flèches vertes pour les cartes adjacentes.


METAR-TAF: